sensor_id;sensor_type;location;lat;lon;timestamp;temperature;humidity
2062;DHT22;11070;51.336;12.340;2023-05-24T00:01:34;10.60;99.90
2062;DHT22;11070;51.336;12.340;2023-05-24T00:04:02;10.60;99.90
2062;DHT22;11070;51.336;12.340;2023-05-24T00:06:28;10.50;99.90
2062;DHT22;11070;51.336;12.340;2023-05-24T00:08:54;10.50;99.90
2062;DHT22;11070;51.336;12.340;2023-05-24T00:11:20;10.50;99.90
2062;DHT22;11070;51.336;12.340;2023-05-24T00:13:47;10.40;99.90
2062;DHT22;11070;51.336;12.340;2023-05-24T00:16:12;10.40;99.90
2062;DHT22;11070;51.336;12.340;2023-05-24T00:18:38;10.50;99.90
2062;DHT22;11070;51.336;12.340;2023-05-24T00:21:06;10.50;99.90
2062;DHT22;11070;51.336;12.340;2023-05-24T00:23:33;10.50;99.90
2062;DHT22;11070;51.336;12.340;2023-05-24T00:25:59;10.50;99.90
2062;DHT22;11070;51.336;12.340;2023-05-24T00:28:26;10.50;99.90
2062;DHT22;11070;51.336;12.340;2023-05-24T00:30:51;10.50;99.90
2062;DHT22;11070;51.336;12.340;2023-05-24T00:33:17;10.50;99.90
2062;DHT22;11070;51.336;12.340;2023-05-24T00:35:43;10.50;99.90
2062;DHT22;11070;51.336;12.340;2023-05-24T00:38:08;10.50;99.90
2062;DHT22;11070;51.336;12.340;2023-05-24T00:40:34;10.50;99.90
2062;DHT22;11070;51.336;12.340;2023-05-24T00:42:59;10.50;99.90
2062;DHT22;11070;51.336;12.340;2023-05-24T00:45:25;10.50;99.90
2062;DHT22;11070;51.336;12.340;2023-05-24T00:47:51;10.40;99.90
2062;DHT22;11070;51.336;12.340;2023-05-24T00:50:17;10.40;99.90
2062;DHT22;11070;51.336;12.340;2023-05-24T00:52:44;10.40;99.90
2062;DHT22;11070;51.336;12.340;2023-05-24T00:55:12;10.30;99.90
2062;DHT22;11070;51.336;12.340;2023-05-24T00:57:38;10.30;99.90
2062;DHT22;11070;51.336;12.340;2023-05-24T01:00:04;10.30;99.90
2062;DHT22;11070;51.336;12.340;2023-05-24T01:02:31;10.30;99.90
2062;DHT22;11070;51.336;12.340;2023-05-24T01:04:57;10.30;99.90
2062;DHT22;11070;51.336;12.340;2023-05-24T01:13:23;10.20;99.90
2062;DHT22;11070;51.336;12.340;2023-05-24T01:16:04;10.10;99.90
2062;DHT22;11070;51.336;12.340;2023-05-24T01:18:34;10.10;99.90
2062;DHT22;11070;51.336;12.340;2023-05-24T01:21:23;10.10;99.90
2062;DHT22;11070;51.336;12.340;2023-05-24T01:29:35;10.10;99.90
2062;DHT22;11070;51.336;12.340;2023-05-24T01:32:02;10.10;99.90
2062;DHT22;11070;51.336;12.340;2023-05-24T01:34:28;10.10;99.90
2062;DHT22;11070;51.336;12.340;2023-05-24T01:36:54;10.00;99.90
2062;DHT22;11070;51.336;12.340;2023-05-24T01:39:21;10.00;99.90
2062;DHT22;11070;51.336;12.340;2023-05-24T01:42:20;10.00;99.90
2062;DHT22;11070;51.336;12.340;2023-05-24T01:50:19;10.00;99.90
2062;DHT22;11070;51.336;12.340;2023-05-24T01:52:49;10.00;99.90
2062;DHT22;11070;51.336;12.340;2023-05-24T01:55:16;9.90;99.90
2062;DHT22;11070;51.336;12.340;2023-05-24T01:57:44;9.90;99.90
2062;DHT22;11070;51.336;12.340;2023-05-24T02:00:13;9.90;99.90
2062;DHT22;11070;51.336;12.340;2023-05-24T02:02:40;9.90;99.90
2062;DHT22;11070;51.336;12.340;2023-05-24T02:05:06;9.80;99.90
2062;DHT22;11070;51.336;12.340;2023-05-24T02:07:31;9.80;99.90
2062;DHT22;11070;51.336;12.340;2023-05-24T02:09:57;9.80;99.90
2062;DHT22;11070;51.336;12.340;2023-05-24T02:12:23;9.70;99.90
2062;DHT22;11070;51.336;12.340;2023-05-24T02:14:48;9.60;99.90
2062;DHT22;11070;51.336;12.340;2023-05-24T02:17:16;9.70;99.90
2062;DHT22;11070;51.336;12.340;2023-05-24T02:19:42;9.70;99.90
2062;DHT22;11070;51.336;12.340;2023-05-24T02:22:08;9.70;99.90
2062;DHT22;11070;51.336;12.340;2023-05-24T02:24:33;9.70;99.90
2062;DHT22;11070;51.336;12.340;2023-05-24T02:26:59;9.60;99.90
2062;DHT22;11070;51.336;12.340;2023-05-24T02:29:25;9.60;99.90
2062;DHT22;11070;51.336;12.340;2023-05-24T02:31:51;9.60;99.90
2062;DHT22;11070;51.336;12.340;2023-05-24T02:34:24;9.60;99.90
2062;DHT22;11070;51.336;12.340;2023-05-24T02:36:50;9.60;99.90
2062;DHT22;11070;51.336;12.340;2023-05-24T02:39:16;9.60;99.90
2062;DHT22;11070;51.336;12.340;2023-05-24T02:41:42;9.60;99.90
2062;DHT22;11070;51.336;12.340;2023-05-24T02:44:08;9.60;99.90
2062;DHT22;11070;51.336;12.340;2023-05-24T02:46:33;9.60;99.90
2062;DHT22;11070;51.336;12.340;2023-05-24T02:48:59;9.60;99.90
2062;DHT22;11070;51.336;12.340;2023-05-24T02:51:25;9.60;99.90
2062;DHT22;11070;51.336;12.340;2023-05-24T02:53:50;9.60;99.90
2062;DHT22;11070;51.336;12.340;2023-05-24T02:56:16;9.50;99.90
2062;DHT22;11070;51.336;12.340;2023-05-24T02:58:45;9.50;99.90
2062;DHT22;11070;51.336;12.340;2023-05-24T03:01:11;9.50;99.90
2062;DHT22;11070;51.336;12.340;2023-05-24T03:03:39;9.50;99.90
2062;DHT22;11070;51.336;12.340;2023-05-24T03:06:06;9.40;99.90
2062;DHT22;11070;51.336;12.340;2023-05-24T03:08:35;9.50;99.90
2062;DHT22;11070;51.336;12.340;2023-05-24T03:11:02;9.50;99.90
2062;DHT22;11070;51.336;12.340;2023-05-24T03:13:28;9.50;99.90
2062;DHT22;11070;51.336;12.340;2023-05-24T03:15:53;9.50;99.90
2062;DHT22;11070;51.336;12.340;2023-05-24T03:18:19;9.50;99.90
2062;DHT22;11070;51.336;12.340;2023-05-24T03:20:45;9.50;99.90
2062;DHT22;11070;51.336;12.340;2023-05-24T03:23:10;9.50;99.90
2062;DHT22;11070;51.336;12.340;2023-05-24T03:25:37;9.60;99.90
2062;DHT22;11070;51.336;12.340;2023-05-24T03:28:03;9.50;99.90
2062;DHT22;11070;51.336;12.340;2023-05-24T03:30:28;9.50;99.90
2062;DHT22;11070;51.336;12.340;2023-05-24T03:32:54;9.40;99.90
2062;DHT22;11070;51.336;12.340;2023-05-24T03:35:20;9.40;99.90
2062;DHT22;11070;51.336;12.340;2023-05-24T03:37:45;9.40;99.90
2062;DHT22;11070;51.336;12.340;2023-05-24T03:40:11;9.40;99.90
2062;DHT22;11070;51.336;12.340;2023-05-24T03:42:37;9.40;99.90
2062;DHT22;11070;51.336;12.340;2023-05-24T03:45:04;9.40;99.90
2062;DHT22;11070;51.336;12.340;2023-05-24T03:47:30;9.40;99.90
2062;DHT22;11070;51.336;12.340;2023-05-24T03:49:55;9.40;99.90
2062;DHT22;11070;51.336;12.340;2023-05-24T03:52:22;9.40;99.90
2062;DHT22;11070;51.336;12.340;2023-05-24T03:54:48;9.40;99.90
2062;DHT22;11070;51.336;12.340;2023-05-24T03:57:14;9.40;99.90
2062;DHT22;11070;51.336;12.340;2023-05-24T03:59:40;9.40;99.90
2062;DHT22;11070;51.336;12.340;2023-05-24T04:02:05;9.50;99.90
2062;DHT22;11070;51.336;12.340;2023-05-24T04:04:31;9.50;99.90
2062;DHT22;11070;51.336;12.340;2023-05-24T04:06:57;9.50;99.90
2062;DHT22;11070;51.336;12.340;2023-05-24T04:09:23;9.50;99.90
2062;DHT22;11070;51.336;12.340;2023-05-24T04:11:49;9.50;99.90
2062;DHT22;11070;51.336;12.340;2023-05-24T04:14:14;9.60;99.90
2062;DHT22;11070;51.336;12.340;2023-05-24T04:16:40;9.60;99.90
2062;DHT22;11070;51.336;12.340;2023-05-24T04:19:09;9.70;99.90
2062;DHT22;11070;51.336;12.340;2023-05-24T04:21:36;9.70;99.90
2062;DHT22;11070;51.336;12.340;2023-05-24T04:24:02;9.70;99.90
2062;DHT22;11070;51.336;12.340;2023-05-24T04:26:29;9.80;99.90
2062;DHT22;11070;51.336;12.340;2023-05-24T04:28:54;9.80;99.90
2062;DHT22;11070;51.336;12.340;2023-05-24T04:31:20;9.80;99.90
2062;DHT22;11070;51.336;12.340;2023-05-24T04:33:46;9.90;99.90
2062;DHT22;11070;51.336;12.340;2023-05-24T04:36:12;9.80;99.90
2062;DHT22;11070;51.336;12.340;2023-05-24T04:38:39;9.80;99.90
2062;DHT22;11070;51.336;12.340;2023-05-24T04:41:05;9.90;99.90
2062;DHT22;11070;51.336;12.340;2023-05-24T04:43:32;9.80;99.90
2062;DHT22;11070;51.336;12.340;2023-05-24T04:45:58;9.80;99.90
2062;DHT22;11070;51.336;12.340;2023-05-24T04:48:24;9.80;99.90
2062;DHT22;11070;51.336;12.340;2023-05-24T04:50:51;9.90;99.90
2062;DHT22;11070;51.336;12.340;2023-05-24T04:53:17;9.90;99.90
2062;DHT22;11070;51.336;12.340;2023-05-24T04:55:43;10.00;99.90
2062;DHT22;11070;51.336;12.340;2023-05-24T04:58:09;10.00;99.90
2062;DHT22;11070;51.336;12.340;2023-05-24T05:00:35;10.10;99.90
2062;DHT22;11070;51.336;12.340;2023-05-24T05:03:00;10.10;99.90
2062;DHT22;11070;51.336;12.340;2023-05-24T05:05:26;10.00;99.90
2062;DHT22;11070;51.336;12.340;2023-05-24T05:07:52;10.00;99.90
2062;DHT22;11070;51.336;12.340;2023-05-24T05:10:17;10.10;99.90
2062;DHT22;11070;51.336;12.340;2023-05-24T05:12:43;10.10;99.90
2062;DHT22;11070;51.336;12.340;2023-05-24T05:15:09;10.00;99.90
2062;DHT22;11070;51.336;12.340;2023-05-24T05:17:35;10.00;99.90
2062;DHT22;11070;51.336;12.340;2023-05-24T05:20:02;10.00;99.90
2062;DHT22;11070;51.336;12.340;2023-05-24T05:22:28;10.10;99.90
2062;DHT22;11070;51.336;12.340;2023-05-24T05:24:55;10.10;99.90
2062;DHT22;11070;51.336;12.340;2023-05-24T05:27:20;10.20;99.90
2062;DHT22;11070;51.336;12.340;2023-05-24T05:29:46;10.40;99.90
2062;DHT22;11070;51.336;12.340;2023-05-24T05:32:12;10.40;99.90
2062;DHT22;11070;51.336;12.340;2023-05-24T05:34:40;10.60;99.90
2062;DHT22;11070;51.336;12.340;2023-05-24T05:37:06;10.60;99.90
2062;DHT22;11070;51.336;12.340;2023-05-24T05:39:34;10.70;99.90
2062;DHT22;11070;51.336;12.340;2023-05-24T05:42:00;10.80;99.90
2062;DHT22;11070;51.336;12.340;2023-05-24T05:44:27;10.90;99.90
2062;DHT22;11070;51.336;12.340;2023-05-24T05:46:52;10.90;99.90
2062;DHT22;11070;51.336;12.340;2023-05-24T05:49:19;11.00;99.90
2062;DHT22;11070;51.336;12.340;2023-05-24T05:51:45;11.00;99.90
2062;DHT22;11070;51.336;12.340;2023-05-24T05:54:11;11.20;99.90
2062;DHT22;11070;51.336;12.340;2023-05-24T05:56:43;11.30;99.90
2062;DHT22;11070;51.336;12.340;2023-05-24T05:59:13;11.40;99.90
2062;DHT22;11070;51.336;12.340;2023-05-24T06:01:40;11.50;99.90
2062;DHT22;11070;51.336;12.340;2023-05-24T06:04:06;11.70;99.90
2062;DHT22;11070;51.336;12.340;2023-05-24T06:06:31;11.80;99.90
2062;DHT22;11070;51.336;12.340;2023-05-24T06:09:00;11.70;99.90
2062;DHT22;11070;51.336;12.340;2023-05-24T06:11:26;11.70;99.90
2062;DHT22;11070;51.336;12.340;2023-05-24T06:13:52;11.80;99.90
2062;DHT22;11070;51.336;12.340;2023-05-24T06:16:18;11.70;99.90
2062;DHT22;11070;51.336;12.340;2023-05-24T06:18:45;11.70;99.90
2062;DHT22;11070;51.336;12.340;2023-05-24T06:21:13;11.90;99.90
2062;DHT22;11070;51.336;12.340;2023-05-24T06:23:38;11.80;99.90
2062;DHT22;11070;51.336;12.340;2023-05-24T06:26:05;11.60;99.90
2062;DHT22;11070;51.336;12.340;2023-05-24T06:28:34;11.50;99.90
2062;DHT22;11070;51.336;12.340;2023-05-24T06:31:00;11.50;99.90
2062;DHT22;11070;51.336;12.340;2023-05-24T06:33:26;11.70;99.90
2062;DHT22;11070;51.336;12.340;2023-05-24T06:35:52;11.80;99.90
2062;DHT22;11070;51.336;12.340;2023-05-24T06:38:17;11.90;99.90
2062;DHT22;11070;51.336;12.340;2023-05-24T06:40:43;12.10;99.90
2062;DHT22;11070;51.336;12.340;2023-05-24T06:43:09;12.30;99.90
2062;DHT22;11070;51.336;12.340;2023-05-24T06:45:34;12.40;99.90
2062;DHT22;11070;51.336;12.340;2023-05-24T06:48:04;12.70;99.90
2062;DHT22;11070;51.336;12.340;2023-05-24T06:50:30;13.00;99.90
2062;DHT22;11070;51.336;12.340;2023-05-24T06:52:56;13.20;99.90
2062;DHT22;11070;51.336;12.340;2023-05-24T06:55:22;13.10;99.90
2062;DHT22;11070;51.336;12.340;2023-05-24T06:57:47;13.00;99.90
2062;DHT22;11070;51.336;12.340;2023-05-24T07:00:13;12.90;99.90
2062;DHT22;11070;51.336;12.340;2023-05-24T07:02:39;12.60;99.90
2062;DHT22;11070;51.336;12.340;2023-05-24T07:05:06;12.60;99.90
2062;DHT22;11070;51.336;12.340;2023-05-24T07:07:38;12.30;99.90
2062;DHT22;11070;51.336;12.340;2023-05-24T07:10:06;12.20;99.90
2062;DHT22;11070;51.336;12.340;2023-05-24T07:12:32;12.30;99.90
2062;DHT22;11070;51.336;12.340;2023-05-24T07:14:58;12.20;99.90
2062;DHT22;11070;51.336;12.340;2023-05-24T07:17:23;12.30;99.90
2062;DHT22;11070;51.336;12.340;2023-05-24T07:19:49;12.50;99.90
2062;DHT22;11070;51.336;12.340;2023-05-24T07:22:15;12.80;99.90
2062;DHT22;11070;51.336;12.340;2023-05-24T07:24:41;13.10;99.90
2062;DHT22;11070;51.336;12.340;2023-05-24T07:27:07;13.30;99.90
2062;DHT22;11070;51.336;12.340;2023-05-24T07:29:33;13.60;99.90
2062;DHT22;11070;51.336;12.340;2023-05-24T07:31:58;13.70;99.90
2062;DHT22;11070;51.336;12.340;2023-05-24T07:34:25;13.90;99.90
2062;DHT22;11070;51.336;12.340;2023-05-24T07:36:54;14.20;99.90
2062;DHT22;11070;51.336;12.340;2023-05-24T07:39:21;14.20;99.90
2062;DHT22;11070;51.336;12.340;2023-05-24T07:41:47;14.10;99.90
2062;DHT22;11070;51.336;12.340;2023-05-24T07:44:13;14.00;99.90
2062;DHT22;11070;51.336;12.340;2023-05-24T07:46:39;13.60;99.90
2062;DHT22;11070;51.336;12.340;2023-05-24T07:49:04;13.50;99.90
2062;DHT22;11070;51.336;12.340;2023-05-24T07:51:30;13.70;99.90
2062;DHT22;11070;51.336;12.340;2023-05-24T07:54:00;14.00;99.90
2062;DHT22;11070;51.336;12.340;2023-05-24T07:56:25;13.90;99.90
2062;DHT22;11070;51.336;12.340;2023-05-24T07:58:51;14.10;99.90
2062;DHT22;11070;51.336;12.340;2023-05-24T08:01:24;14.10;99.90
2062;DHT22;11070;51.336;12.340;2023-05-24T08:03:49;13.80;99.90
2062;DHT22;11070;51.336;12.340;2023-05-24T08:06:15;13.50;99.90
2062;DHT22;11070;51.336;12.340;2023-05-24T08:08:41;13.10;99.90
2062;DHT22;11070;51.336;12.340;2023-05-24T08:11:06;13.00;99.90
2062;DHT22;11070;51.336;12.340;2023-05-24T08:13:35;13.00;99.90
2062;DHT22;11070;51.336;12.340;2023-05-24T08:16:03;13.20;99.90
2062;DHT22;11070;51.336;12.340;2023-05-24T08:18:31;13.10;99.90
2062;DHT22;11070;51.336;12.340;2023-05-24T08:20:57;13.30;99.90
2062;DHT22;11070;51.336;12.340;2023-05-24T08:23:23;13.30;99.90
2062;DHT22;11070;51.336;12.340;2023-05-24T08:25:55;13.60;99.90
2062;DHT22;11070;51.336;12.340;2023-05-24T08:28:21;14.20;99.90
2062;DHT22;11070;51.336;12.340;2023-05-24T08:30:47;14.70;99.90
2062;DHT22;11070;51.336;12.340;2023-05-24T08:33:12;15.30;99.90
2062;DHT22;11070;51.336;12.340;2023-05-24T08:35:38;15.70;99.90
2062;DHT22;11070;51.336;12.340;2023-05-24T08:38:04;15.30;99.90
2062;DHT22;11070;51.336;12.340;2023-05-24T08:40:30;15.50;99.90
2062;DHT22;11070;51.336;12.340;2023-05-24T08:42:58;15.50;99.90
2062;DHT22;11070;51.336;12.340;2023-05-24T08:45:25;15.00;99.90
2062;DHT22;11070;51.336;12.340;2023-05-24T08:47:50;14.80;99.90
2062;DHT22;11070;51.336;12.340;2023-05-24T08:50:17;15.00;99.90
2062;DHT22;11070;51.336;12.340;2023-05-24T08:52:44;15.40;99.90
2062;DHT22;11070;51.336;12.340;2023-05-24T08:55:10;15.60;99.90
2062;DHT22;11070;51.336;12.340;2023-05-24T08:57:36;15.70;99.90
2062;DHT22;11070;51.336;12.340;2023-05-24T09:00:08;15.80;99.90
2062;DHT22;11070;51.336;12.340;2023-05-24T09:02:37;15.90;98.80
2062;DHT22;11070;51.336;12.340;2023-05-24T09:05:03;15.80;98.90
2062;DHT22;11070;51.336;12.340;2023-05-24T09:07:31;15.60;97.70
2062;DHT22;11070;51.336;12.340;2023-05-24T09:10:03;15.30;99.90
2062;DHT22;11070;51.336;12.340;2023-05-24T09:12:30;15.20;99.90
2062;DHT22;11070;51.336;12.340;2023-05-24T09:15:01;15.40;99.90
2062;DHT22;11070;51.336;12.340;2023-05-24T09:17:30;15.60;99.10
2062;DHT22;11070;51.336;12.340;2023-05-24T09:19:57;16.00;98.40
2062;DHT22;11070;51.336;12.340;2023-05-24T09:22:27;16.00;96.50
2062;DHT22;11070;51.336;12.340;2023-05-24T09:24:59;16.00;96.50
2062;DHT22;11070;51.336;12.340;2023-05-24T09:27:26;16.20;96.60
2062;DHT22;11070;51.336;12.340;2023-05-24T09:29:52;16.40;94.60
2062;DHT22;11070;51.336;12.340;2023-05-24T09:32:21;16.10;94.00
2062;DHT22;11070;51.336;12.340;2023-05-24T09:34:50;15.60;94.70
2062;DHT22;11070;51.336;12.340;2023-05-24T09:37:21;15.50;96.10
2062;DHT22;11070;51.336;12.340;2023-05-24T09:39:49;15.50;96.40
2062;DHT22;11070;51.336;12.340;2023-05-24T09:42:19;15.70;94.90
2062;DHT22;11070;51.336;12.340;2023-05-24T09:47:29;15.70;94.90
2062;DHT22;11070;51.336;12.340;2023-05-24T09:49:54;15.70;95.40
2062;DHT22;11070;51.336;12.340;2023-05-24T09:52:21;16.00;95.20
2062;DHT22;11070;51.336;12.340;2023-05-24T09:54:46;16.10;95.10
2062;DHT22;11070;51.336;12.340;2023-05-24T09:57:15;16.20;94.30
2062;DHT22;11070;51.336;12.340;2023-05-24T09:59:42;16.50;94.50
2062;DHT22;11070;51.336;12.340;2023-05-24T10:02:12;16.50;91.80
2062;DHT22;11070;51.336;12.340;2023-05-24T10:04:38;16.50;91.30
2062;DHT22;11070;51.336;12.340;2023-05-24T10:07:05;16.80;90.50
2062;DHT22;11070;51.336;12.340;2023-05-24T10:09:32;17.30;90.10
2062;DHT22;11070;51.336;12.340;2023-05-24T10:12:07;17.60;85.20
2062;DHT22;11070;51.336;12.340;2023-05-24T10:14:37;18.20;81.90
2062;DHT22;11070;51.336;12.340;2023-05-24T10:17:06;18.50;79.00
2062;DHT22;11070;51.336;12.340;2023-05-24T10:19:33;18.40;77.40
2062;DHT22;11070;51.336;12.340;2023-05-24T10:22:00;18.00;79.00
2062;DHT22;11070;51.336;12.340;2023-05-24T10:24:32;17.80;81.40
2062;DHT22;11070;51.336;12.340;2023-05-24T10:27:04;17.30;82.60
2062;DHT22;11070;51.336;12.340;2023-05-24T10:32:13;16.80;87.50
2062;DHT22;11070;51.336;12.340;2023-05-24T10:34:41;16.70;87.30
2062;DHT22;11070;51.336;12.340;2023-05-24T10:37:07;16.60;87.70
2062;DHT22;11070;51.336;12.340;2023-05-24T10:39:34;16.80;90.20
2062;DHT22;11070;51.336;12.340;2023-05-24T10:42:06;17.10;89.30
2062;DHT22;11070;51.336;12.340;2023-05-24T10:44:32;17.00;90.00
2062;DHT22;11070;51.336;12.340;2023-05-24T10:47:10;16.80;90.70
2062;DHT22;11070;51.336;12.340;2023-05-24T10:49:38;16.90;91.40
2062;DHT22;11070;51.336;12.340;2023-05-24T10:52:11;16.70;91.30
2062;DHT22;11070;51.336;12.340;2023-05-24T10:54:38;16.90;89.80
2062;DHT22;11070;51.336;12.340;2023-05-24T10:57:05;17.40;90.10
2062;DHT22;11070;51.336;12.340;2023-05-24T10:59:35;17.50;84.90
2062;DHT22;11070;51.336;12.340;2023-05-24T11:02:08;17.70;84.60
2062;DHT22;11070;51.336;12.340;2023-05-24T11:04:44;17.70;85.00
2062;DHT22;11070;51.336;12.340;2023-05-24T11:07:13;18.20;82.40
2062;DHT22;11070;51.336;12.340;2023-05-24T11:09:39;18.50;82.20
2062;DHT22;11070;51.336;12.340;2023-05-24T11:12:15;19.00;81.00
2062;DHT22;11070;51.336;12.340;2023-05-24T11:14:50;19.30;77.20
2062;DHT22;11070;51.336;12.340;2023-05-24T11:17:19;19.40;75.70
2062;DHT22;11070;51.336;12.340;2023-05-24T11:19:50;19.40;75.50
2062;DHT22;11070;51.336;12.340;2023-05-24T11:22:19;19.40;75.00
2062;DHT22;11070;51.336;12.340;2023-05-24T11:24:47;19.00;74.60
2062;DHT22;11070;51.336;12.340;2023-05-24T11:27:13;18.70;71.70
2062;DHT22;11070;51.336;12.340;2023-05-24T11:29:40;18.80;73.10
2062;DHT22;11070;51.336;12.340;2023-05-24T11:32:06;18.80;72.40
2062;DHT22;11070;51.336;12.340;2023-05-24T11:34:33;18.90;72.40
2062;DHT22;11070;51.336;12.340;2023-05-24T11:37:00;19.20;71.30
2062;DHT22;11070;51.336;12.340;2023-05-24T11:39:34;19.60;67.50
2062;DHT22;11070;51.336;12.340;2023-05-24T11:42:03;19.60;68.00
2062;DHT22;11070;51.336;12.340;2023-05-24T11:44:31;20.20;65.90
2062;DHT22;11070;51.336;12.340;2023-05-24T11:47:01;20.30;62.80
2062;DHT22;11070;51.336;12.340;2023-05-24T11:49:28;20.50;63.00
2062;DHT22;11070;51.336;12.340;2023-05-24T11:51:55;21.10;63.20
2062;DHT22;11070;51.336;12.340;2023-05-24T11:54:23;21.60;61.30
2062;DHT22;11070;51.336;12.340;2023-05-24T11:56:48;21.50;59.50
2062;DHT22;11070;51.336;12.340;2023-05-24T12:01:47;20.80;62.00
2062;DHT22;11070;51.336;12.340;2023-05-24T12:04:13;21.10;61.60
2062;DHT22;11070;51.336;12.340;2023-05-24T12:06:42;21.50;62.50
2062;DHT22;11070;51.336;12.340;2023-05-24T12:09:10;21.30;62.20
2062;DHT22;11070;51.336;12.340;2023-05-24T12:11:39;21.00;63.50
2062;DHT22;11070;51.336;12.340;2023-05-24T12:14:13;21.50;62.30
2062;DHT22;11070;51.336;12.340;2023-05-24T12:16:40;20.80;62.30
2062;DHT22;11070;51.336;12.340;2023-05-24T12:19:07;20.50;63.90
2062;DHT22;11070;51.336;12.340;2023-05-24T12:21:33;20.60;64.60
2062;DHT22;11070;51.336;12.340;2023-05-24T12:24:13;20.50;64.00
2062;DHT22;11070;51.336;12.340;2023-05-24T12:26:43;20.70;64.50
2062;DHT22;11070;51.336;12.340;2023-05-24T12:29:13;20.80;63.40
2062;DHT22;11070;51.336;12.340;2023-05-24T12:31:40;21.10;62.00
2062;DHT22;11070;51.336;12.340;2023-05-24T12:34:10;21.10;62.00
2062;DHT22;11070;51.336;12.340;2023-05-24T12:36:37;20.60;62.70
2062;DHT22;11070;51.336;12.340;2023-05-24T12:39:26;20.40;64.00
2062;DHT22;11070;51.336;12.340;2023-05-24T12:42:02;20.80;63.40
2062;DHT22;11070;51.336;12.340;2023-05-24T12:44:36;21.00;59.90
2062;DHT22;11070;51.336;12.340;2023-05-24T12:47:03;21.00;60.70
2062;DHT22;11070;51.336;12.340;2023-05-24T12:49:30;21.30;59.80
2062;DHT22;11070;51.336;12.340;2023-05-24T12:51:56;21.50;59.80
2062;DHT22;11070;51.336;12.340;2023-05-24T12:54:24;21.60;58.90
2062;DHT22;11070;51.336;12.340;2023-05-24T12:56:51;21.60;58.60
2062;DHT22;11070;51.336;12.340;2023-05-24T12:59:17;21.40;58.00
2062;DHT22;11070;51.336;12.340;2023-05-24T13:01:43;21.20;59.00
2062;DHT22;11070;51.336;12.340;2023-05-24T13:04:15;21.80;58.30
2062;DHT22;11070;51.336;12.340;2023-05-24T13:06:41;22.10;57.40
2062;DHT22;11070;51.336;12.340;2023-05-24T13:09:07;21.80;57.70
2062;DHT22;11070;51.336;12.340;2023-05-24T13:11:34;22.30;57.00
2062;DHT22;11070;51.336;12.340;2023-05-24T13:14:01;21.90;56.80
2062;DHT22;11070;51.336;12.340;2023-05-24T13:16:27;21.70;56.60
2062;DHT22;11070;51.336;12.340;2023-05-24T13:18:53;21.10;56.90
2062;DHT22;11070;51.336;12.340;2023-05-24T13:21:19;21.10;57.30
2062;DHT22;11070;51.336;12.340;2023-05-24T13:23:46;21.90;57.30
2062;DHT22;11070;51.336;12.340;2023-05-24T13:26:12;22.30;55.60
2062;DHT22;11070;51.336;12.340;2023-05-24T13:28:38;21.80;55.90
2062;DHT22;11070;51.336;12.340;2023-05-24T13:31:04;21.70;57.20
2062;DHT22;11070;51.336;12.340;2023-05-24T13:33:33;21.10;56.80
2062;DHT22;11070;51.336;12.340;2023-05-24T13:35:58;20.80;57.80
2062;DHT22;11070;51.336;12.340;2023-05-24T13:38:24;20.60;58.20
2062;DHT22;11070;51.336;12.340;2023-05-24T13:40:52;20.50;57.90
2062;DHT22;11070;51.336;12.340;2023-05-24T13:43:18;20.50;58.40
2062;DHT22;11070;51.336;12.340;2023-05-24T13:45:44;20.50;57.80
2062;DHT22;11070;51.336;12.340;2023-05-24T13:48:10;20.60;57.10
2062;DHT22;11070;51.336;12.340;2023-05-24T13:50:36;21.00;57.00
2062;DHT22;11070;51.336;12.340;2023-05-24T13:53:03;21.50;56.10
2062;DHT22;11070;51.336;12.340;2023-05-24T13:55:30;21.80;55.80
2062;DHT22;11070;51.336;12.340;2023-05-24T13:57:57;22.10;56.20
2062;DHT22;11070;51.336;12.340;2023-05-24T14:00:23;21.90;57.10
2062;DHT22;11070;51.336;12.340;2023-05-24T14:02:49;21.60;58.00
2062;DHT22;11070;51.336;12.340;2023-05-24T14:05:16;21.40;58.30
2062;DHT22;11070;51.336;12.340;2023-05-24T14:07:42;21.60;58.20
2062;DHT22;11070;51.336;12.340;2023-05-24T14:10:08;21.40;58.40
2062;DHT22;11070;51.336;12.340;2023-05-24T14:12:34;21.60;58.20
2062;DHT22;11070;51.336;12.340;2023-05-24T14:15:00;22.00;56.80
2062;DHT22;11070;51.336;12.340;2023-05-24T14:17:26;21.50;56.80
2062;DHT22;11070;51.336;12.340;2023-05-24T14:19:52;21.30;56.80
2062;DHT22;11070;51.336;12.340;2023-05-24T14:22:18;21.00;57.80
2062;DHT22;11070;51.336;12.340;2023-05-24T14:24:43;20.60;58.50
2062;DHT22;11070;51.336;12.340;2023-05-24T14:27:09;20.50;59.10
2062;DHT22;11070;51.336;12.340;2023-05-24T14:29:35;20.30;58.90
2062;DHT22;11070;51.336;12.340;2023-05-24T14:32:00;20.30;59.30
2062;DHT22;11070;51.336;12.340;2023-05-24T14:34:26;20.20;58.80
2062;DHT22;11070;51.336;12.340;2023-05-24T14:36:53;20.30;58.80
2062;DHT22;11070;51.336;12.340;2023-05-24T14:39:18;20.30;58.40
2062;DHT22;11070;51.336;12.340;2023-05-24T14:41:44;20.40;58.30
2062;DHT22;11070;51.336;12.340;2023-05-24T14:44:10;20.10;58.60
2062;DHT22;11070;51.336;12.340;2023-05-24T14:46:36;19.90;58.10
2062;DHT22;11070;51.336;12.340;2023-05-24T14:49:02;19.70;57.10
2062;DHT22;11070;51.336;12.340;2023-05-24T14:51:28;19.60;57.40
2062;DHT22;11070;51.336;12.340;2023-05-24T14:53:53;19.70;58.00
2062;DHT22;11070;51.336;12.340;2023-05-24T14:56:19;19.70;57.60
2062;DHT22;11070;51.336;12.340;2023-05-24T14:58:45;20.00;57.40
2062;DHT22;11070;51.336;12.340;2023-05-24T15:01:10;20.20;56.60
2062;DHT22;11070;51.336;12.340;2023-05-24T15:03:36;20.50;57.10
2062;DHT22;11070;51.336;12.340;2023-05-24T15:06:02;20.80;57.40
2062;DHT22;11070;51.336;12.340;2023-05-24T15:08:28;20.60;56.90
2062;DHT22;11070;51.336;12.340;2023-05-24T15:10:54;20.60;58.40
2062;DHT22;11070;51.336;12.340;2023-05-24T15:13:22;21.00;57.80
2062;DHT22;11070;51.336;12.340;2023-05-24T15:15:50;21.10;57.60
2062;DHT22;11070;51.336;12.340;2023-05-24T15:18:18;20.60;57.20
2062;DHT22;11070;51.336;12.340;2023-05-24T15:20:43;20.60;58.00
2062;DHT22;11070;51.336;12.340;2023-05-24T15:23:09;20.80;57.10
2062;DHT22;11070;51.336;12.340;2023-05-24T15:25:36;20.70;57.50
2062;DHT22;11070;51.336;12.340;2023-05-24T15:28:02;20.40;57.80
2062;DHT22;11070;51.336;12.340;2023-05-24T15:30:28;19.80;57.90
2062;DHT22;11070;51.336;12.340;2023-05-24T15:32:53;19.40;58.60
2062;DHT22;11070;51.336;12.340;2023-05-24T15:35:19;19.00;58.90
2062;DHT22;11070;51.336;12.340;2023-05-24T15:37:45;18.90;59.60
2062;DHT22;11070;51.336;12.340;2023-05-24T15:40:11;18.80;60.70
2062;DHT22;11070;51.336;12.340;2023-05-24T15:42:37;18.70;60.30
2062;DHT22;11070;51.336;12.340;2023-05-24T15:45:04;18.50;59.90
2062;DHT22;11070;51.336;12.340;2023-05-24T15:47:30;18.30;60.00
2062;DHT22;11070;51.336;12.340;2023-05-24T15:50:01;18.20;60.70
2062;DHT22;11070;51.336;12.340;2023-05-24T15:52:27;18.20;61.00
2062;DHT22;11070;51.336;12.340;2023-05-24T15:54:53;18.10;61.20
2062;DHT22;11070;51.336;12.340;2023-05-24T15:57:18;18.00;61.10
2062;DHT22;11070;51.336;12.340;2023-05-24T15:59:44;18.00;62.40